Bahri Yanbu — HZFH — position and weather

sailwx.info

Track history (hours):
 
Tides and Currents Weather Stations Pressure Air Temp Water Temp Dewpoint Dewpoint Depression Visibility Wind Speed Wind Dir Waves Ship Positions

Bahri Yanbu

Last reported at 2018-Apr-25 05:52 UTC. Time now 2018-Apr-25 06:53 UTC.
Position N 37°03' W 000°39'.

Length 205 m; draft 8.3 m.

Type: Cargo ship. MMSI: 403532001.

Date/timePositionNaut miles runAvg speedWind from/ knotsBaromVisibWave heightAir tempDewpointWater temp
2018-Apr-25 05:52N 37°03' W 000°39'614.7
2018-Apr-25 05:29N 37°00' W 000°45'814.7
2018-Apr-25 04:55N 36°55' W 000°54'21614.9
2018-Apr-24 14:24N 35°59' W 005°13'616.0
2018-Apr-24 14:00N 35°59' W 005°21'815.9
2018-Apr-24 13:30N 35°57' W 005°30'  
2018-Apr-21 23:06N 36°00' W 023°26'413.2
2018-Apr-21 22:47N 35°60' W 023°31'413.3
2018-Apr-21 22:29N 35°59' W 023°36'813.4
2018-Apr-21 21:52N 35°58' W 023°46'713.8
2018-Apr-21 21:23N 35°57' W 023°54'613.6
2018-Apr-21 20:55N 35°55' W 024°02'613.7
2018-Apr-21 20:30N 35°55' W 024°09'713.7
2018-Apr-21 20:00N 35°54' W 024°17'713.6
2018-Apr-21 19:30N 35°53' W 024°25'713.7
2018-Apr-21 19:00N 35°52' W 024°34'713.5
2018-Apr-21 18:30N 35°51' W 024°42'713.7
2018-Apr-21 18:00N 35°50' W 024°50'713.9
2018-Apr-21 17:31N 35°49' W 024°59'714.1
2018-Apr-21 17:00N 35°48' W 025°08'714.2
2018-Apr-21 16:30N 35°47' W 025°16'714.3
2018-Apr-21 16:00N 35°46' W 025°25'714.4
2018-Apr-21 15:30N 35°45' W 025°34'714.6
2018-Apr-21 15:00N 35°44' W 025°43'714.5
2018-Apr-21 14:30N 35°44' W 025°52'1014.6
2018-Apr-21 13:51N 35°43' W 026°03'  
Track history (hours):
 
Tides and Currents Weather Stations Pressure Air Temp Water Temp Dewpoint Dewpoint Depression Visibility Wind Speed Wind Dir Waves Ship Positions

Bahri Yanbu

Last reported at 2018-Apr-25 05:52 UTC. Time now 2018-Apr-25 06:53 UTC.
Position N 37°03' W 000°39'.

Length 205 m; draft 8.3 m.

Type: Cargo ship. MMSI: 403532001.

Date/timePositionNaut miles runAvg speedWind from/ knotsBaromVisibWave heightAir tempDewpointWater temp
2018-Apr-25 05:52N 37°03' W 000°39'614.7
2018-Apr-25 05:29N 37°00' W 000°45'814.7
2018-Apr-25 04:55N 36°55' W 000°54'21614.9
2018-Apr-24 14:24N 35°59' W 005°13'616.0
2018-Apr-24 14:00N 35°59' W 005°21'815.9
2018-Apr-24 13:30N 35°57' W 005°30'  
2018-Apr-21 23:06N 36°00' W 023°26'413.2
2018-Apr-21 22:47N 35°60' W 023°31'413.3
2018-Apr-21 22:29N 35°59' W 023°36'813.4
2018-Apr-21 21:52N 35°58' W 023°46'713.8
2018-Apr-21 21:23N 35°57' W 023°54'613.6
2018-Apr-21 20:55N 35°55' W 024°02'613.7
2018-Apr-21 20:30N 35°55' W 024°09'713.7
2018-Apr-21 20:00N 35°54' W 024°17'713.6
2018-Apr-21 19:30N 35°53' W 024°25'713.7
2018-Apr-21 19:00N 35°52' W 024°34'713.5
2018-Apr-21 18:30N 35°51' W 024°42'713.7
2018-Apr-21 18:00N 35°50' W 024°50'713.9
2018-Apr-21 17:31N 35°49' W 024°59'714.1
2018-Apr-21 17:00N 35°48' W 025°08'714.2
2018-Apr-21 16:30N 35°47' W 025°16'714.3
2018-Apr-21 16:00N 35°46' W 025°25'714.4
2018-Apr-21 15:30N 35°45' W 025°34'714.6
2018-Apr-21 15:00N 35°44' W 025°43'714.5
2018-Apr-21 14:30N 35°44' W 025°52'1014.6
2018-Apr-21 13:51N 35°43' W 026°03'  

Dump ship's entire track history